CheckWX is a tool to help pilots better visualize weather data.  It is not intended as a substitute for an official pre-flight weather briefing.

15:43:17 UTC

KOKK METAR
Kokomo Municipal Airport
Kokomo, Indiana, USA
Current

47 mins ago

KOKK 211456Z AUTO 18014KT 10SM -RA SCT075 OVC090 08/05 A2995 RMK AO2 RAB11 SLP148 P0002 60002 T00780050 56018
Observed
Nov-21 @ 14:56 UTC
Wind
  • 180° at 14 KTS
Visibility
10 SM
Flight Rules
VFR
Conditions
Light Rain
Cloud Levels
  • Scattered at 7,500' AGL
  • Overcast at 9,000' AGL
Temperature
C / 46°F
Dewpoint
C / 41°F
Humidity
82%
Altimeter
29.95" Hg
Pressure
1014.22 hPa
Current Rain
0.02"
Previous

2 hours ago

KOKK 211356Z AUTO 17013G20KT 10SM OVC085 07/04 A2997 RMK AO2 SLP154 T00720044
Observed
Nov-21 @ 13:56 UTC
Wind
  • 170° at 13 KTS
  • Gusting to 20 KTS
Visibility
10 SM
Flight Rules
VFR
Cloud Levels
  • Overcast at 8,500' AGL
Temperature
C / 45°F
Dewpoint
C / 39°F
Humidity
81%
Altimeter
29.97" Hg
Pressure
1014.92 hPa
Previous

3 hours ago

KOKK 211256Z AUTO 17015KT 10SM OVC090 06/04 A2999 RMK AO2 RAB07E44 SLP161 P0000 T00610044
Observed
Nov-21 @ 12:56 UTC
Wind
  • 170° at 15 KTS
Visibility
10 SM
Flight Rules
VFR
Cloud Levels
  • Overcast at 9,000' AGL
Temperature
C / 43°F
Dewpoint
C / 39°F
Humidity
87%
Altimeter
29.99" Hg
Pressure
1015.62 hPa
Current Rain
0.01"